Boray, Minnesota
Current Conditions -  °F | °C
As of 8:35 PM on Friday 28 Nov 2014 (Local Time) from KGPZ Reporting Station
Overcast Overcast  
Wind Chill:   Ceiling: 3400
Heat Index: 14°   Visibility: 10mi
Dew Point:   Wind: 13mph
Humidity: 79%   Direction: 150°SSE
Pressure: 29.72"   Gusts: 16mph
Location:  47.2774°N, 93.3384°W
Report Text: KGPZ 290235Z AUTO 15011G14KT 10SM SCT027 OVC034 M10/M13 A2972 RMK AO1
Loading
Personal Weather Stations






























Interactive Weather Map New forecast layout! Learn more

10-Day Weather Forecast

Advertisements
Track Severe Weather on mobile